createdAt,value
2023-04-05T00:01:36.888Z,22.00
2023-04-05T00:04:04.897Z,21.80
2023-04-05T00:06:31.372Z,18.70
2023-04-05T00:09:03.026Z,24.40
2023-04-05T00:11:33.005Z,24.30
2023-04-05T00:14:00.413Z,24.80
2023-04-05T00:16:28.307Z,17.20
2023-04-05T00:18:56.403Z,21.90
2023-04-05T00:21:23.784Z,18.90
2023-04-05T00:23:53.105Z,22.70
2023-04-05T00:26:20.689Z,22.60
2023-04-05T00:28:48.946Z,16.80
2023-04-05T00:31:15.713Z,20.00
2023-04-05T00:33:42.798Z,21.60
2023-04-05T00:36:10.750Z,20.70
2023-04-05T00:38:38.128Z,16.10
2023-04-05T00:41:04.639Z,20.60
2023-04-05T00:43:31.456Z,20.90
2023-04-05T00:45:57.855Z,16.00
2023-04-05T00:48:25.365Z,20.60
2023-04-05T00:50:52.120Z,21.40
2023-04-05T00:53:20.070Z,20.00
2023-04-05T00:55:47.786Z,26.40
2023-04-05T00:58:18.549Z,21.80
2023-04-05T01:00:58.656Z,23.60
2023-04-05T01:03:28.697Z,26.90
2023-04-05T01:08:45.798Z,20.60
2023-04-05T01:11:15.593Z,21.30
2023-04-05T01:13:45.024Z,23.60
2023-04-05T01:16:11.757Z,22.20
2023-04-05T01:18:38.481Z,24.80
2023-04-05T01:21:33.364Z,24.70
2023-04-05T01:24:12.181Z,25.20
2023-04-05T01:26:56.648Z,20.40
2023-04-05T01:29:31.436Z,26.10
2023-04-05T01:32:10.968Z,26.10
2023-04-05T01:34:49.004Z,19.60
2023-04-05T01:37:19.640Z,22.60
2023-04-05T01:39:48.295Z,23.40
2023-04-05T01:42:21.567Z,21.60
2023-04-05T01:44:48.051Z,20.30
2023-04-05T01:47:14.738Z,20.80
2023-04-05T01:49:41.164Z,19.10
2023-04-05T01:52:07.894Z,22.60
2023-04-05T01:54:34.738Z,22.90
2023-04-05T01:57:01.167Z,22.70
2023-04-05T01:59:27.681Z,22.90
2023-04-05T02:01:54.090Z,24.10
2023-04-05T02:04:20.973Z,18.90
2023-04-05T02:06:47.376Z,21.30
2023-04-05T02:09:13.758Z,22.00
2023-04-05T02:11:41.212Z,31.60
2023-04-05T02:14:09.056Z,24.50
2023-04-05T02:16:36.250Z,19.70
2023-04-05T02:19:02.930Z,27.70
2023-04-05T02:21:31.356Z,28.10
2023-04-05T02:23:57.789Z,24.70
2023-04-05T02:26:24.252Z,23.00
2023-04-05T02:28:50.682Z,25.20
2023-04-05T02:31:17.316Z,24.30
2023-04-05T02:33:43.848Z,23.80
2023-04-05T02:36:12.646Z,24.00
2023-04-05T02:38:39.070Z,26.90
2023-04-05T02:41:10.401Z,25.70
2023-04-05T02:43:38.762Z,24.50
2023-04-05T02:46:05.243Z,24.20
2023-04-05T02:48:32.457Z,22.80
2023-04-05T02:50:59.038Z,24.00
2023-04-05T02:53:25.404Z,25.80
2023-04-05T02:55:57.260Z,25.70
2023-04-05T02:58:24.223Z,24.70
2023-04-05T03:00:52.415Z,23.80
2023-04-05T03:03:23.885Z,26.70
2023-04-05T03:05:59.710Z,24.80
2023-04-05T03:08:28.092Z,25.10
2023-04-05T03:11:01.274Z,28.40
2023-04-05T03:13:28.175Z,25.50
2023-04-05T03:15:55.059Z,23.00
2023-04-05T03:18:24.985Z,24.60
2023-04-05T03:20:59.180Z,23.30
2023-04-05T03:23:28.934Z,28.30
2023-04-05T03:26:00.666Z,23.90
2023-04-05T03:28:33.695Z,18.80
2023-04-05T03:31:02.454Z,24.90
2023-04-05T03:33:29.363Z,25.60
2023-04-05T03:35:55.831Z,23.50
2023-04-05T03:38:22.649Z,21.90
2023-04-05T03:41:07.711Z,28.40
2023-04-05T03:43:35.221Z,24.60
2023-04-05T03:46:01.872Z,22.70
2023-04-05T03:48:29.034Z,20.80
2023-04-05T03:50:55.584Z,23.30
2023-04-05T03:53:22.836Z,22.30
2023-04-05T03:55:54.588Z,24.60
2023-04-05T03:58:27.678Z,28.50
2023-04-05T04:00:56.116Z,27.70
2023-04-05T04:03:25.347Z,22.10
2023-04-05T04:05:53.292Z,26.70
2023-04-05T04:08:20.600Z,26.40
2023-04-05T04:10:48.681Z,25.20
2023-04-05T04:13:23.815Z,26.90
2023-04-05T04:16:10.478Z,22.40
2023-04-05T04:18:57.172Z,26.10
2023-04-05T04:21:35.633Z,25.60
2023-04-05T04:24:32.060Z,23.70
2023-04-05T04:27:21.857Z,24.70
2023-04-05T04:30:04.230Z,26.10
2023-04-05T04:32:53.233Z,17.20
2023-04-05T04:35:34.270Z,24.00
2023-04-05T04:38:17.867Z,18.40
2023-04-05T04:40:53.003Z,26.70
2023-04-05T04:43:43.176Z,22.20
2023-04-05T04:46:18.391Z,27.20
2023-04-05T04:48:58.806Z,23.30
2023-04-05T04:51:36.925Z,27.20
2023-04-05T04:54:03.348Z,20.10
2023-04-05T04:56:29.830Z,24.00
2023-04-05T04:58:58.069Z,25.10
2023-04-05T05:01:25.774Z,23.10
2023-04-05T05:03:52.376Z,23.40
2023-04-05T05:06:29.199Z,24.70
2023-04-05T05:08:55.807Z,20.80
2023-04-05T05:11:22.262Z,17.30
2023-04-05T05:13:51.273Z,31.10
2023-04-05T05:16:22.844Z,20.10
2023-04-05T05:18:52.391Z,12.90
2023-04-05T05:21:20.363Z,25.20
2023-04-05T05:23:52.699Z,34.20
2023-04-05T05:26:19.047Z,23.90
2023-04-05T05:28:46.380Z,19.50
2023-04-05T05:31:13.540Z,31.00
2023-04-05T05:33:40.383Z,27.90
2023-04-05T05:36:07.457Z,28.50
2023-04-05T05:38:33.993Z,33.60
2023-04-05T05:41:00.379Z,32.70
2023-04-05T05:43:26.984Z,28.80
2023-04-05T05:45:53.604Z,21.20
2023-04-05T05:48:20.329Z,24.70
2023-04-05T05:50:48.529Z,28.50
2023-04-05T05:53:15.698Z,31.60
2023-04-05T05:55:42.249Z,34.40
2023-04-05T05:58:08.713Z,31.90
2023-04-05T06:00:35.763Z,34.10
2023-04-05T06:03:03.880Z,32.80
2023-04-05T06:05:30.336Z,34.00
2023-04-05T06:07:56.639Z,26.00
2023-04-05T06:10:23.987Z,21.60
2023-04-05T06:12:50.431Z,30.60
2023-04-05T06:15:16.785Z,23.70
2023-04-05T06:17:43.739Z,26.40
2023-04-05T06:20:13.375Z,21.60
2023-04-05T06:22:40.740Z,21.60
2023-04-05T06:25:08.338Z,20.90
2023-04-05T06:27:35.163Z,18.40
2023-04-05T06:30:02.377Z,21.00
2023-04-05T06:32:29.111Z,29.00
2023-04-05T06:34:55.524Z,22.20
2023-04-05T06:37:22.184Z,18.40
2023-04-05T06:39:48.693Z,18.30
2023-04-05T06:42:15.456Z,16.50
2023-04-05T06:44:44.189Z,27.70
2023-04-05T06:47:10.603Z,20.40
2023-04-05T06:49:37.032Z,23.80
2023-04-05T06:52:05.995Z,17.40
2023-04-05T06:54:33.408Z,19.10
2023-04-05T06:57:01.779Z,19.90
2023-04-05T06:59:29.414Z,20.70
2023-04-05T07:01:56.195Z,18.50
2023-04-05T07:04:22.890Z,15.50
2023-04-05T07:06:49.371Z,23.00
2023-04-05T07:09:16.274Z,14.00
2023-04-05T07:11:42.606Z,14.20
2023-04-05T07:14:09.079Z,14.70
2023-04-05T07:16:35.590Z,23.90
2023-04-05T07:19:02.079Z,19.10
2023-04-05T07:21:30.165Z,22.60
2023-04-05T07:24:00.127Z,9.90
2023-04-05T07:26:26.571Z,18.80
2023-04-05T07:28:53.051Z,14.40
2023-04-05T07:31:19.725Z,20.30
2023-04-05T07:33:46.090Z,17.00
2023-04-05T07:36:12.550Z,22.20
2023-04-05T07:38:39.232Z,18.30
2023-04-05T07:41:05.838Z,18.70
2023-04-05T07:43:32.281Z,17.20
2023-04-05T07:46:05.018Z,19.90
2023-04-05T07:48:31.633Z,20.20
2023-04-05T07:51:06.407Z,12.20
2023-04-05T07:53:32.803Z,12.70
2023-04-05T07:56:06.133Z,13.60
2023-04-05T07:58:33.485Z,18.70
2023-04-05T08:01:04.091Z,19.50
2023-04-05T08:03:31.564Z,12.40
2023-04-05T08:05:57.936Z,9.60
2023-04-05T08:08:24.982Z,9.20
2023-04-05T08:10:51.414Z,8.90
2023-04-05T08:13:17.762Z,7.60
2023-04-05T08:15:44.123Z,8.70
2023-04-05T08:18:10.574Z,8.00
2023-04-05T08:20:38.854Z,6.40
2023-04-05T08:23:05.520Z,12.10
2023-04-05T08:25:31.876Z,9.10
2023-04-05T08:27:58.426Z,4.80
2023-04-05T08:30:24.773Z,6.10
2023-04-05T08:32:51.267Z,8.10
2023-04-05T08:35:17.680Z,8.60
2023-04-05T08:37:44.128Z,15.10
2023-04-05T08:40:11.447Z,7.80
2023-04-05T08:43:09.862Z,5.80
2023-04-05T08:45:47.853Z,7.90
2023-04-05T08:48:15.031Z,6.00
2023-04-05T08:50:41.671Z,7.40
2023-04-05T08:53:10.987Z,6.80
2023-04-05T08:55:38.876Z,5.10
2023-04-05T08:58:12.091Z,7.80
2023-04-05T09:00:40.685Z,7.50
2023-04-05T09:03:12.337Z,5.90
2023-04-05T09:05:40.408Z,6.30
2023-04-05T09:08:06.932Z,5.40
2023-04-05T09:10:33.918Z,6.80
2023-04-05T09:13:02.263Z,7.60
2023-04-05T09:15:29.852Z,4.40
2023-04-05T09:17:56.955Z,23.20
2023-04-05T09:20:23.724Z,6.80
2023-04-05T09:22:50.445Z,20.80
2023-04-05T09:25:31.891Z,6.40
2023-04-05T09:27:59.387Z,7.60
2023-04-05T09:30:27.361Z,9.90
2023-04-05T09:32:55.525Z,9.00
2023-04-05T09:35:23.712Z,6.60
2023-04-05T09:37:55.475Z,8.20
2023-04-05T09:40:24.077Z,8.70
2023-04-05T09:42:52.465Z,19.70
2023-04-05T09:45:18.984Z,7.80
2023-04-05T09:47:56.914Z,7.70
2023-04-05T09:50:23.564Z,4.40
2023-04-05T09:52:52.035Z,7.00
2023-04-05T09:55:28.448Z,7.00
2023-04-05T09:57:54.899Z,7.30
2023-04-05T10:00:22.168Z,6.80
2023-04-05T10:02:53.499Z,7.10
2023-04-05T10:05:23.757Z,7.10
2023-04-05T10:07:51.550Z,7.70
2023-04-05T10:10:18.302Z,6.20
2023-04-05T10:12:46.391Z,7.60
2023-04-05T10:15:13.767Z,5.40
2023-04-05T10:18:10.113Z,5.80
2023-04-05T10:20:41.017Z,8.90
2023-04-05T10:23:12.805Z,5.00
2023-04-05T10:25:52.944Z,9.50
2023-04-05T10:28:33.304Z,6.20
2023-04-05T10:31:40.366Z,5.90
2023-04-05T10:34:11.882Z,5.10
2023-04-05T10:36:58.763Z,6.00
2023-04-05T10:39:33.018Z,4.10
2023-04-05T10:42:06.477Z,5.90
2023-04-05T10:44:36.750Z,6.50
2023-04-05T10:47:04.737Z,3.60
2023-04-05T10:49:37.201Z,5.30
2023-04-05T10:52:05.332Z,4.00
2023-04-05T10:54:36.019Z,5.50
2023-04-05T10:57:09.453Z,4.60
2023-04-05T10:59:42.333Z,4.00
2023-04-05T11:02:09.781Z,3.20
2023-04-05T11:04:38.757Z,4.40
2023-04-05T11:07:17.429Z,5.20
2023-04-05T11:09:57.022Z,3.70
2023-04-05T11:12:45.739Z,9.10
2023-04-05T11:15:27.172Z,2.90
2023-04-05T11:18:15.506Z,6.60
2023-04-05T11:20:44.935Z,5.70
2023-04-05T11:23:16.225Z,2.90
2023-04-05T11:25:47.561Z,4.60
2023-04-05T11:28:36.638Z,3.00
2023-04-05T11:31:17.288Z,22.60
2023-04-05T11:33:55.323Z,4.60
2023-04-05T11:36:51.744Z,4.80
2023-04-05T11:39:18.283Z,4.00
2023-04-05T11:41:54.804Z,3.80
2023-04-05T11:44:23.363Z,4.10
2023-04-05T11:46:52.578Z,5.20
2023-04-05T11:49:23.859Z,6.60
2023-04-05T11:51:52.078Z,2.60
2023-04-05T11:54:29.532Z,4.00
2023-04-05T11:56:56.175Z,3.00
2023-04-05T11:59:35.933Z,6.20
2023-04-05T12:02:07.009Z,3.20
2023-04-05T12:04:37.370Z,6.00
2023-04-05T12:07:16.739Z,4.60
2023-04-05T12:10:01.944Z,4.80
2023-04-05T12:12:34.224Z,2.60
2023-04-05T12:15:02.297Z,3.30
2023-04-05T12:17:38.671Z,3.90
2023-04-05T12:20:06.421Z,3.70
2023-04-05T12:22:33.590Z,11.80
2023-04-05T12:25:00.105Z,7.50
2023-04-05T12:27:26.784Z,4.40
2023-04-05T12:30:16.034Z,3.20
2023-04-05T12:32:54.196Z,5.60
2023-04-05T12:35:34.655Z,4.00
2023-04-05T12:38:02.864Z,4.50
2023-04-05T12:40:30.405Z,4.50
2023-04-05T12:43:05.090Z,4.50
2023-04-05T12:45:39.005Z,3.10
2023-04-05T12:48:11.325Z,3.30
2023-04-05T12:50:42.610Z,3.60
2023-04-05T12:53:27.883Z,5.40
2023-04-05T12:55:55.850Z,4.00
2023-04-05T12:58:31.993Z,2.60
2023-04-05T13:00:58.456Z,7.60
2023-04-05T13:03:26.276Z,4.70
2023-04-05T13:05:52.988Z,4.40
2023-04-05T13:08:19.620Z,4.40
2023-04-05T13:10:47.428Z,4.40
2023-04-05T13:13:14.755Z,5.70
2023-04-05T13:15:41.630Z,5.80
2023-04-05T13:18:09.439Z,3.20
2023-04-05T13:20:36.362Z,2.90
2023-04-05T13:23:02.748Z,4.00
2023-04-05T13:25:29.131Z,3.90
2023-04-05T13:27:55.461Z,4.90
2023-04-05T13:30:22.028Z,3.60
2023-04-05T13:32:48.489Z,3.70
2023-04-05T13:35:15.486Z,7.90
2023-04-05T13:37:41.845Z,3.80
2023-04-05T13:40:08.803Z,4.40
2023-04-05T13:42:35.401Z,3.90
2023-04-05T13:45:02.516Z,4.40
2023-04-05T13:47:28.977Z,3.30
2023-04-05T13:49:55.417Z,3.70
2023-04-05T13:52:22.206Z,3.60
2023-04-05T13:54:48.553Z,4.60
2023-04-05T13:57:28.690Z,3.40
2023-04-05T13:59:55.418Z,5.20
2023-04-05T14:02:25.074Z,6.50
2023-04-05T14:04:54.805Z,3.80
2023-04-05T14:07:22.220Z,6.50
2023-04-05T14:09:48.630Z,5.80
2023-04-05T14:12:15.277Z,3.30
2023-04-05T14:14:41.785Z,5.20
2023-04-05T14:17:08.523Z,5.40
2023-04-05T14:19:35.150Z,4.80
2023-04-05T14:22:01.515Z,7.60
2023-04-05T14:24:28.076Z,4.20
2023-04-05T14:26:57.392Z,4.20
2023-04-05T14:29:25.410Z,7.80
2023-04-05T14:31:54.084Z,7.20
2023-04-05T14:34:20.586Z,5.00
2023-04-05T14:36:47.263Z,5.00
2023-04-05T14:39:13.703Z,4.70
2023-04-05T14:41:40.340Z,5.60
2023-04-05T14:44:06.835Z,4.10
2023-04-05T14:46:33.231Z,5.80
2023-04-05T14:48:59.712Z,5.60
2023-04-05T14:51:26.669Z,4.40
2023-04-05T14:53:53.197Z,5.40
2023-04-05T14:56:19.622Z,4.10
2023-04-05T14:58:46.091Z,5.10
2023-04-05T15:01:12.710Z,5.00
2023-04-05T15:03:39.290Z,5.60
2023-04-05T15:06:06.140Z,8.80
2023-04-05T15:08:32.794Z,4.80
2023-04-05T15:10:59.689Z,5.70
2023-04-05T15:13:26.360Z,4.20
2023-04-05T15:15:52.910Z,5.70
2023-04-05T15:18:19.611Z,5.10
2023-04-05T15:20:46.129Z,7.00
2023-04-05T15:23:12.659Z,5.40
2023-04-05T15:25:39.089Z,5.30
2023-04-05T15:28:07.037Z,4.20
2023-04-05T15:30:35.104Z,4.60
2023-04-05T15:33:01.585Z,4.90
2023-04-05T15:35:28.671Z,4.60
2023-04-05T15:37:55.110Z,4.80
2023-04-05T15:40:21.867Z,3.80
2023-04-05T15:42:48.233Z,5.40
2023-04-05T15:45:14.851Z,11.60
2023-04-05T15:47:41.343Z,12.70
2023-04-05T15:50:08.065Z,7.30
2023-04-05T15:52:35.216Z,9.50
2023-04-05T15:55:03.060Z,12.70
2023-04-05T15:57:29.653Z,19.00
2023-04-05T15:59:56.066Z,11.20
2023-04-05T16:02:22.852Z,12.70
2023-04-05T16:04:49.468Z,9.70
2023-04-05T16:07:16.103Z,13.30
2023-04-05T16:09:44.096Z,21.00
2023-04-05T16:12:10.647Z,15.70
2023-04-05T16:14:37.670Z,20.30
2023-04-05T16:17:04.246Z,21.90
2023-04-05T16:19:30.978Z,11.40
2023-04-05T16:21:59.480Z,6.90
2023-04-05T16:24:27.187Z,7.10
2023-04-05T16:26:53.739Z,7.50
2023-04-05T16:29:20.211Z,10.40
2023-04-05T16:31:46.905Z,11.10
2023-04-05T16:34:13.574Z,24.50
2023-04-05T16:36:41.034Z,19.10
2023-04-05T16:39:08.037Z,15.20
2023-04-05T16:41:35.580Z,9.10
2023-04-05T16:44:02.792Z,7.80
2023-04-05T16:46:31.443Z,7.60
2023-04-05T16:48:59.054Z,13.30
2023-04-05T16:51:25.900Z,9.00
2023-04-05T16:53:53.226Z,14.10
2023-04-05T16:56:20.214Z,7.80
2023-04-05T16:58:46.795Z,7.60
2023-04-05T17:01:13.562Z,6.00
2023-04-05T17:03:41.398Z,14.00
2023-04-05T17:06:10.383Z,15.60
2023-04-05T17:08:37.116Z,8.10
2023-04-05T17:11:03.773Z,9.90
2023-04-05T17:13:30.484Z,7.10
2023-04-05T17:15:57.276Z,44.70
2023-04-05T17:18:24.368Z,41.90
2023-04-05T17:20:50.979Z,20.70
2023-04-05T17:23:17.453Z,19.30
2023-04-05T17:25:43.852Z,10.00
2023-04-05T17:28:12.190Z,19.20
2023-04-05T17:30:38.578Z,39.10
2023-04-05T17:33:05.641Z,24.80
2023-04-05T17:35:32.326Z,27.70
2023-04-05T17:37:59.296Z,34.40
2023-04-05T17:40:26.596Z,20.40
2023-04-05T17:42:52.956Z,23.80
2023-04-05T17:45:19.458Z,17.70
2023-04-05T17:47:46.246Z,12.40
2023-04-05T17:50:12.953Z,10.60
2023-04-05T17:52:39.917Z,13.50
2023-04-05T17:55:06.584Z,17.90
2023-04-05T17:57:32.952Z,9.10
2023-04-05T17:59:59.751Z,10.40
2023-04-05T18:02:27.318Z,11.90
2023-04-05T18:04:54.160Z,15.50
2023-04-05T18:07:20.659Z,12.20
2023-04-05T18:09:47.199Z,9.50
2023-04-05T18:12:14.055Z,8.80
2023-04-05T18:14:41.012Z,7.70
2023-04-05T18:17:07.821Z,14.60
2023-04-05T18:19:35.246Z,12.40
2023-04-05T18:22:02.132Z,14.80
2023-04-05T18:24:28.765Z,13.00
2023-04-05T18:26:55.205Z,10.20
2023-04-05T18:29:27.475Z,10.10
2023-04-05T18:31:55.378Z,12.20
2023-04-05T18:34:22.794Z,11.10
2023-04-05T18:36:50.343Z,9.70
2023-04-05T18:39:18.928Z,9.40
2023-04-05T18:41:45.437Z,9.10
2023-04-05T18:44:12.404Z,14.20
2023-04-05T18:46:39.217Z,12.70
2023-04-05T18:49:05.934Z,19.50
2023-04-05T18:51:33.041Z,27.30
2023-04-05T18:53:59.770Z,46.60
2023-04-05T18:56:27.266Z,51.40
2023-04-05T18:58:53.744Z,98.80
2023-04-05T19:01:21.707Z,114.70
2023-04-05T19:03:49.848Z,109.60
2023-04-05T19:06:17.445Z,98.00
2023-04-05T19:08:47.245Z,103.00
2023-04-05T19:11:14.287Z,117.00
2023-04-05T19:13:41.500Z,97.90
2023-04-05T19:16:08.065Z,53.50
2023-04-05T19:18:34.618Z,48.30
2023-04-05T19:21:01.166Z,86.50
2023-04-05T19:23:28.019Z,93.00
2023-04-05T19:25:55.855Z,88.60
2023-04-05T19:28:23.689Z,91.70
2023-04-05T19:30:50.451Z,58.20
2023-04-05T19:33:19.094Z,42.00
2023-04-05T19:35:47.254Z,60.20
2023-04-05T19:38:13.743Z,74.80
2023-04-05T19:40:41.527Z,55.80
2023-04-05T19:43:09.169Z,30.70
2023-04-05T19:45:36.438Z,45.90
2023-04-05T19:48:26.979Z,41.40
2023-04-05T19:50:56.690Z,24.30
2023-04-05T19:55:58.301Z,12.20
2023-04-05T19:58:28.500Z,9.90
2023-04-05T20:00:55.073Z,11.00
2023-04-05T20:03:31.328Z,15.70
2023-04-05T20:06:03.363Z,24.50
2023-04-05T20:08:33.007Z,29.40
2023-04-05T20:10:59.519Z,24.90
2023-04-05T20:13:26.284Z,27.80
2023-04-05T20:15:53.390Z,23.60
2023-04-05T20:18:25.236Z,17.00
2023-04-05T20:20:53.231Z,12.20
2023-04-05T20:23:21.707Z,14.00
2023-04-05T20:25:50.111Z,15.30
2023-04-05T20:28:38.400Z,15.50
2023-04-05T20:33:53.437Z,19.30
2023-04-05T20:36:28.842Z,24.50
2023-04-05T20:38:55.561Z,10.70
2023-04-05T20:41:22.097Z,24.80
2023-04-05T20:43:48.516Z,16.80
2023-04-05T20:46:16.068Z,11.30
2023-04-05T20:48:43.024Z,11.60
2023-04-05T20:51:14.007Z,14.80
2023-04-05T20:53:40.989Z,14.80
2023-04-05T20:56:09.049Z,17.20
2023-04-05T20:58:36.894Z,21.60
2023-04-05T21:01:04.045Z,13.20
2023-04-05T21:03:32.425Z,21.40
2023-04-05T21:06:00.489Z,16.90
2023-04-05T21:08:28.652Z,12.00
2023-04-05T21:10:56.372Z,7.80
2023-04-05T21:13:24.809Z,6.30
2023-04-05T21:15:53.233Z,8.00
2023-04-05T21:18:22.586Z,7.80
2023-04-05T21:20:50.436Z,7.00
2023-04-05T21:23:21.781Z,8.20
2023-04-05T21:25:49.181Z,6.80
2023-04-05T21:28:16.179Z,3.90
2023-04-05T21:30:43.161Z,5.40
2023-04-05T21:33:10.578Z,6.40
2023-04-05T21:35:37.459Z,5.30
2023-04-05T21:38:04.272Z,7.30
2023-04-05T21:40:31.219Z,5.70
2023-04-05T21:42:57.793Z,9.70
2023-04-05T21:45:24.714Z,11.50
2023-04-05T21:47:51.908Z,10.30
2023-04-05T21:50:18.864Z,9.90
2023-04-05T21:52:45.683Z,6.80
2023-04-05T21:55:12.236Z,5.70
2023-04-05T21:57:39.083Z,4.60
2023-04-05T22:00:10.395Z,5.60
2023-04-05T22:02:39.578Z,5.40
2023-04-05T22:05:07.299Z,9.10
2023-04-05T22:07:34.965Z,8.30
2023-04-05T22:10:02.201Z,7.50
2023-04-05T22:12:28.992Z,7.70
2023-04-05T22:14:55.853Z,8.40
2023-04-05T22:17:22.369Z,8.90
2023-04-05T22:19:48.827Z,6.40
2023-04-05T22:22:16.241Z,8.10
2023-04-05T22:24:43.029Z,6.30
2023-04-05T22:27:10.386Z,7.30
2023-04-05T22:29:37.708Z,7.60
2023-04-05T22:32:04.348Z,7.30
2023-04-05T22:34:30.766Z,10.10
2023-04-05T22:36:57.321Z,9.20
2023-04-05T22:39:23.858Z,12.50
2023-04-05T22:41:50.260Z,9.10
2023-04-05T22:44:16.796Z,10.20
2023-04-05T22:46:43.217Z,10.60
2023-04-05T22:49:09.957Z,6.70
2023-04-05T22:51:36.657Z,8.40
2023-04-05T22:54:03.198Z,7.40
2023-04-05T22:56:30.997Z,7.40
2023-04-05T22:58:57.434Z,8.60
2023-04-05T23:01:23.876Z,7.80
2023-04-05T23:03:50.376Z,7.30
2023-04-05T23:06:16.962Z,7.60
2023-04-05T23:08:43.345Z,7.90
2023-04-05T23:11:09.987Z,8.40
2023-04-05T23:13:36.349Z,7.40
2023-04-05T23:16:03.485Z,5.80
2023-04-05T23:18:30.439Z,5.50
2023-04-05T23:20:56.888Z,5.60
2023-04-05T23:23:23.360Z,8.60
2023-04-05T23:25:50.434Z,6.50
2023-04-05T23:28:16.932Z,5.20
2023-04-05T23:30:43.425Z,8.10
2023-04-05T23:33:13.056Z,5.30
2023-04-05T23:35:40.580Z,7.00
2023-04-05T23:38:07.171Z,6.50
2023-04-05T23:40:33.863Z,6.20
2023-04-05T23:43:00.708Z,5.00
2023-04-05T23:45:27.632Z,6.60
2023-04-05T23:47:55.036Z,7.30
2023-04-05T23:50:21.830Z,6.10
2023-04-05T23:52:48.616Z,7.00
2023-04-05T23:55:15.605Z,5.00
2023-04-05T23:57:42.028Z,9.10
